createdAt,value
2023-02-11T00:00:24.960Z,76.31
2023-02-11T00:03:29.694Z,76.04
2023-02-11T00:06:34.230Z,76.11
2023-02-11T00:09:41.087Z,76.21
2023-02-11T00:12:43.475Z,77.09
2023-02-11T00:15:47.161Z,78.51
2023-02-11T00:18:50.348Z,79.97
2023-02-11T00:21:52.917Z,79.57
2023-02-11T00:24:57.135Z,79.83
2023-02-11T00:28:02.752Z,80.08
2023-02-11T00:31:05.510Z,79.49
2023-02-11T00:34:08.146Z,79.07
2023-02-11T00:37:14.893Z,78.78
2023-02-11T00:40:17.663Z,80.32
2023-02-11T00:43:22.620Z,79.41
2023-02-11T00:46:26.531Z,80.03
2023-02-11T00:49:28.799Z,80.53
2023-02-11T00:52:32.370Z,80.18
2023-02-11T00:55:34.744Z,80.51
2023-02-11T00:58:37.943Z,80.02
2023-02-11T01:01:40.470Z,79.40
2023-02-11T01:04:43.629Z,78.61
2023-02-11T01:07:46.303Z,78.01
2023-02-11T01:10:59.751Z,78.27
2023-02-11T01:14:02.349Z,79.87
2023-02-11T01:17:06.361Z,78.99
2023-02-11T01:20:15.452Z,80.89
2023-02-11T01:23:18.921Z,80.58
2023-02-11T01:26:21.254Z,81.04
2023-02-11T01:29:26.255Z,81.28
2023-02-11T01:32:30.216Z,80.39
2023-02-11T01:35:32.804Z,80.37
2023-02-11T01:38:36.866Z,79.75
2023-02-11T01:41:39.535Z,79.81
2023-02-11T01:44:41.893Z,78.76
2023-02-11T01:47:44.973Z,78.29
2023-02-11T01:50:53.105Z,77.21
2023-02-11T01:54:16.281Z,77.86
2023-02-11T01:57:23.085Z,77.18
2023-02-11T02:00:40.981Z,77.40
2023-02-11T02:03:48.144Z,77.03
2023-02-11T02:06:59.614Z,77.24
2023-02-11T02:10:09.598Z,77.31
2023-02-11T02:13:12.860Z,77.55
2023-02-11T02:16:19.392Z,77.46
2023-02-11T02:19:48.937Z,75.95
2023-02-11T02:23:04.053Z,76.54
2023-02-11T02:26:28.430Z,75.69
2023-02-11T02:29:49.781Z,74.93
2023-02-11T02:33:22.517Z,74.63
2023-02-11T02:36:37.865Z,74.42
2023-02-11T02:39:40.324Z,74.44
2023-02-11T02:42:44.636Z,74.44
2023-02-11T02:45:46.960Z,74.48
2023-02-11T02:48:52.768Z,74.43
2023-02-11T02:52:20.575Z,75.25
2023-02-11T02:55:34.968Z,74.90
2023-02-11T02:59:03.476Z,74.72
2023-02-11T03:02:32.996Z,73.97
2023-02-11T03:06:08.012Z,72.90
2023-02-11T03:09:25.921Z,73.20
2023-02-11T03:12:31.508Z,73.46
2023-02-11T03:15:39.095Z,73.49
2023-02-11T03:18:46.670Z,73.61
2023-02-11T03:21:51.959Z,73.28
2023-02-11T03:24:56.509Z,73.55
2023-02-11T03:28:36.200Z,73.47
2023-02-11T03:31:58.086Z,72.68
2023-02-11T03:35:07.750Z,72.69
2023-02-11T03:38:24.372Z,72.84
2023-02-11T03:41:28.421Z,72.87
2023-02-11T03:44:37.172Z,73.05
2023-02-11T03:47:41.631Z,74.20
2023-02-11T03:50:47.671Z,73.63
2023-02-11T03:53:55.025Z,73.15
2023-02-11T03:57:00.701Z,73.52
2023-02-11T04:00:06.078Z,73.15
2023-02-11T04:03:13.828Z,73.20
2023-02-11T04:06:23.603Z,73.30
2023-02-11T04:09:25.792Z,73.20
2023-02-11T04:12:28.292Z,73.85
2023-02-11T04:15:30.832Z,74.11
2023-02-11T04:18:35.493Z,74.71
2023-02-11T04:21:37.855Z,75.59
2023-02-11T04:24:40.998Z,75.41
2023-02-11T04:27:43.224Z,74.92
2023-02-11T04:30:46.177Z,74.61
2023-02-11T04:33:50.693Z,74.12
2023-02-11T04:36:55.290Z,74.77
2023-02-11T04:39:57.888Z,74.41
2023-02-11T04:43:00.425Z,74.01
2023-02-11T04:46:02.711Z,73.51
2023-02-11T04:49:05.891Z,73.37
2023-02-11T04:52:09.957Z,73.11
2023-02-11T04:55:12.998Z,73.28
2023-02-11T04:58:15.183Z,72.61
2023-02-11T05:01:17.895Z,72.82
2023-02-11T05:04:22.830Z,72.65
2023-02-11T05:07:26.480Z,73.43
2023-02-11T05:10:28.695Z,73.74
2023-02-11T05:13:32.148Z,73.39
2023-02-11T05:16:35.108Z,72.90
2023-02-11T05:19:37.736Z,72.64
2023-02-11T05:22:40.179Z,73.81
2023-02-11T05:25:42.668Z,72.86
2023-02-11T05:28:45.196Z,72.96
2023-02-11T05:31:47.641Z,72.72
2023-02-11T05:34:50.065Z,73.66
2023-02-11T05:37:52.673Z,74.22
2023-02-11T05:40:55.052Z,73.42
2023-02-11T05:43:57.591Z,74.36
2023-02-11T05:47:00.187Z,74.39
2023-02-11T05:50:03.430Z,75.02
2023-02-11T05:53:06.815Z,74.85
2023-02-11T05:56:10.545Z,74.26
2023-02-11T05:59:14.934Z,72.78
2023-02-11T06:02:17.565Z,72.74
2023-02-11T06:05:20.262Z,72.09
2023-02-11T06:08:22.552Z,72.52
2023-02-11T06:11:27.682Z,72.91
2023-02-11T06:14:35.497Z,71.39
2023-02-11T06:17:40.325Z,71.24
2023-02-11T06:20:44.067Z,71.24
2023-02-11T06:23:46.794Z,71.55
2023-02-11T06:26:49.751Z,71.38
2023-02-11T06:29:57.535Z,71.15
2023-02-11T06:32:59.821Z,70.27
2023-02-11T06:36:03.015Z,69.27
2023-02-11T06:39:05.795Z,68.12
2023-02-11T06:42:09.966Z,67.52
2023-02-11T06:45:13.400Z,67.13
2023-02-11T06:48:16.192Z,66.58
2023-02-11T06:51:21.164Z,66.72
2023-02-11T06:54:23.753Z,65.87
2023-02-11T06:57:28.076Z,64.64
2023-02-11T07:00:32.172Z,63.71
2023-02-11T07:03:36.763Z,62.76
2023-02-11T07:06:43.110Z,62.04
2023-02-11T07:09:45.684Z,61.16
2023-02-11T07:12:48.303Z,61.62
2023-02-11T07:15:53.229Z,61.82
2023-02-11T07:18:56.056Z,62.13
2023-02-11T07:21:58.182Z,62.31
2023-02-11T07:25:00.681Z,63.78
2023-02-11T07:28:03.735Z,64.52
2023-02-11T07:31:13.096Z,64.64
2023-02-11T07:34:15.470Z,62.22
2023-02-11T07:37:18.062Z,62.79
2023-02-11T07:40:20.386Z,62.14
2023-02-11T07:43:22.920Z,61.17
2023-02-11T07:46:27.413Z,62.95
2023-02-11T07:49:30.857Z,60.46
2023-02-11T07:52:33.454Z,57.13
2023-02-11T07:55:37.482Z,56.16
2023-02-11T07:58:42.769Z,54.92
2023-02-11T08:01:45.563Z,54.51
2023-02-11T08:04:48.191Z,53.90
2023-02-11T08:07:54.577Z,54.41
2023-02-11T08:10:57.353Z,54.36
2023-02-11T08:13:59.919Z,53.71
2023-02-11T08:17:02.970Z,53.61
2023-02-11T08:20:06.936Z,53.04
2023-02-11T08:23:09.484Z,53.32
2023-02-11T08:26:16.067Z,52.81
2023-02-11T08:29:18.635Z,52.69
2023-02-11T08:32:22.046Z,52.35
2023-02-11T08:35:26.085Z,54.22
2023-02-11T08:38:28.364Z,53.40
2023-02-11T08:41:32.827Z,52.61
2023-02-11T08:44:35.100Z,54.16
2023-02-11T08:47:38.196Z,53.94
2023-02-11T08:50:41.385Z,53.92
2023-02-11T08:53:44.382Z,53.11
2023-02-11T08:56:51.639Z,54.19
2023-02-11T08:59:54.336Z,53.83
2023-02-11T09:02:58.726Z,54.16
2023-02-11T09:06:05.450Z,54.41
2023-02-11T09:09:13.508Z,54.40
2023-02-11T09:12:16.084Z,54.38
2023-02-11T09:15:18.313Z,54.22
2023-02-11T09:18:20.928Z,53.60
2023-02-11T09:21:25.812Z,53.94
2023-02-11T09:24:28.879Z,53.99
2023-02-11T09:27:31.211Z,53.05
2023-02-11T09:30:34.083Z,52.40
2023-02-11T09:33:37.474Z,51.90
2023-02-11T09:36:42.459Z,49.41
2023-02-11T09:39:46.334Z,48.05
2023-02-11T09:43:06.929Z,48.34
2023-02-11T09:46:15.392Z,48.20
2023-02-11T09:49:30.512Z,48.41
2023-02-11T09:52:49.214Z,49.01
2023-02-11T09:55:59.545Z,50.05
2023-02-11T09:59:01.846Z,48.67
2023-02-11T10:02:16.161Z,47.54
2023-02-11T10:05:25.418Z,48.55
2023-02-11T10:09:06.904Z,48.57
2023-02-11T10:12:28.118Z,47.76
2023-02-11T10:15:36.484Z,47.51
2023-02-11T10:18:51.270Z,48.07
2023-02-11T10:22:16.992Z,47.90
2023-02-11T10:25:22.522Z,47.31
2023-02-11T10:28:31.008Z,47.25
2023-02-11T10:31:42.447Z,47.66
2023-02-11T10:34:46.902Z,47.32
2023-02-11T10:37:50.053Z,47.02
2023-02-11T10:40:52.624Z,47.07
2023-02-11T10:43:55.636Z,46.92
2023-02-11T10:47:05.253Z,46.91
2023-02-11T10:50:26.852Z,47.61
2023-02-11T10:53:29.700Z,47.42
2023-02-11T10:56:37.929Z,47.68
2023-02-11T10:59:40.604Z,47.19
2023-02-11T11:02:44.875Z,46.30
2023-02-11T11:05:51.183Z,46.47
2023-02-11T11:08:54.255Z,45.98
2023-02-11T11:11:58.927Z,44.85
2023-02-11T11:15:01.800Z,44.04
2023-02-11T11:18:23.073Z,46.66
2023-02-11T11:21:36.918Z,46.93
2023-02-11T11:24:46.030Z,45.87
2023-02-11T11:27:51.039Z,45.44
2023-02-11T11:30:58.141Z,45.87
2023-02-11T11:34:20.951Z,45.73
2023-02-11T11:37:35.405Z,45.22
2023-02-11T11:40:40.562Z,44.79
2023-02-11T11:44:05.981Z,44.34
2023-02-11T11:47:11.821Z,44.00
2023-02-11T11:50:22.896Z,42.88
2023-02-11T11:53:53.288Z,42.87
2023-02-11T11:57:11.041Z,41.94
2023-02-11T12:00:17.773Z,42.10
2023-02-11T12:03:32.412Z,42.67
2023-02-11T12:06:41.205Z,42.10
2023-02-11T12:09:44.923Z,41.83
2023-02-11T12:13:19.952Z,41.80
2023-02-11T12:16:38.068Z,41.15
2023-02-11T12:19:50.229Z,40.69
2023-02-11T12:22:56.022Z,41.02
2023-02-11T12:26:14.410Z,41.11
2023-02-11T12:29:32.412Z,41.40
2023-02-11T12:33:07.607Z,40.99
2023-02-11T12:36:19.833Z,40.63
2023-02-11T12:39:22.030Z,40.55
2023-02-11T12:43:11.437Z,41.25
2023-02-11T12:46:33.445Z,41.31
2023-02-11T12:50:09.137Z,40.11
2023-02-11T12:53:30.020Z,40.41
2023-02-11T12:56:52.922Z,40.41
2023-02-11T13:00:18.448Z,40.29
2023-02-11T13:03:27.266Z,41.13
2023-02-11T13:06:36.277Z,41.16
2023-02-11T13:09:51.921Z,41.15
2023-02-11T13:13:15.426Z,40.44
2023-02-11T13:16:27.761Z,40.93
2023-02-11T13:19:48.646Z,39.57
2023-02-11T13:23:22.061Z,38.55
2023-02-11T13:26:47.341Z,38.31
2023-02-11T13:29:56.285Z,37.50
2023-02-11T13:33:00.615Z,37.00
2023-02-11T13:36:05.325Z,37.50
2023-02-11T13:39:21.099Z,37.23
2023-02-11T13:42:24.346Z,36.58
2023-02-11T13:45:52.031Z,36.37
2023-02-11T13:48:55.233Z,36.62
2023-02-11T13:51:59.253Z,37.05
2023-02-11T13:55:14.482Z,36.54
2023-02-11T13:58:28.960Z,37.39
2023-02-11T14:02:12.483Z,38.03
2023-02-11T14:05:51.976Z,37.46
2023-02-11T14:09:09.614Z,37.72
2023-02-11T14:12:31.868Z,38.15
2023-02-11T14:15:40.927Z,38.07
2023-02-11T14:18:51.917Z,38.49
2023-02-11T14:22:18.812Z,38.02
2023-02-11T14:25:27.375Z,37.84
2023-02-11T14:28:34.193Z,37.94
2023-02-11T14:32:06.110Z,37.53
2023-02-11T14:35:19.062Z,37.92
2023-02-11T14:39:07.670Z,38.50
2023-02-11T14:42:20.830Z,38.27
2023-02-11T14:45:27.290Z,38.68
2023-02-11T14:48:40.163Z,38.17
2023-02-11T14:51:44.006Z,39.14
2023-02-11T14:54:49.291Z,38.82
2023-02-11T14:58:25.393Z,40.17
2023-02-11T15:01:36.249Z,39.11
2023-02-11T15:04:40.422Z,39.71
2023-02-11T15:07:57.016Z,39.62
2023-02-11T15:11:02.916Z,40.10
2023-02-11T15:14:25.889Z,41.02
2023-02-11T15:17:34.403Z,40.76
2023-02-11T15:20:37.019Z,41.10
2023-02-11T15:23:43.188Z,41.67
2023-02-11T15:26:45.386Z,41.72
2023-02-11T15:29:50.642Z,41.52
2023-02-11T15:32:59.890Z,41.93
2023-02-11T15:36:11.141Z,42.36
2023-02-11T15:39:33.525Z,42.83
2023-02-11T15:42:51.788Z,42.88
2023-02-11T15:46:01.217Z,43.18
2023-02-11T15:49:04.244Z,43.78
2023-02-11T15:52:08.226Z,44.04
2023-02-11T15:55:15.745Z,44.44
2023-02-11T15:58:18.307Z,44.72
2023-02-11T16:01:34.080Z,44.77
2023-02-11T16:04:37.728Z,45.47
2023-02-11T16:07:53.542Z,45.33
2023-02-11T16:11:08.935Z,46.04
2023-02-11T16:14:31.637Z,46.64
2023-02-11T16:17:34.460Z,47.56
2023-02-11T16:20:36.673Z,47.80
2023-02-11T16:23:45.504Z,47.77
2023-02-11T16:26:53.456Z,48.17
2023-02-11T16:29:58.132Z,47.89
2023-02-11T16:33:00.672Z,48.90
2023-02-11T16:36:13.936Z,49.14
2023-02-11T16:39:18.201Z,49.60
2023-02-11T16:42:20.654Z,49.48
2023-02-11T16:45:22.957Z,49.84
2023-02-11T16:48:25.666Z,49.89
2023-02-11T16:51:27.999Z,50.09
2023-02-11T16:54:30.625Z,49.91
2023-02-11T16:57:32.842Z,49.99
2023-02-11T17:00:36.441Z,49.55
2023-02-11T17:03:40.599Z,49.90
2023-02-11T17:06:43.504Z,49.41
2023-02-11T17:09:45.700Z,49.52
2023-02-11T17:12:49.912Z,49.66
2023-02-11T17:15:52.485Z,49.13
2023-02-11T17:18:55.243Z,48.41
2023-02-11T17:21:57.441Z,48.43
2023-02-11T17:25:04.803Z,48.30
2023-02-11T17:28:09.451Z,48.18
2023-02-11T17:31:12.300Z,48.59
2023-02-11T17:34:14.972Z,48.90
2023-02-11T17:37:17.781Z,50.08
2023-02-11T17:40:21.558Z,49.74
2023-02-11T17:43:25.169Z,49.62
2023-02-11T17:46:32.384Z,50.22
2023-02-11T17:49:35.132Z,50.59
2023-02-11T17:52:37.889Z,51.57
2023-02-11T17:55:40.588Z,51.38
2023-02-11T17:58:42.873Z,50.95
2023-02-11T18:01:45.700Z,51.66
2023-02-11T18:04:48.334Z,51.89
2023-02-11T18:07:50.696Z,51.75
2023-02-11T18:10:53.341Z,51.95
2023-02-11T18:13:55.992Z,52.36
2023-02-11T18:16:58.672Z,52.04
2023-02-11T18:20:01.081Z,51.66
2023-02-11T18:23:04.617Z,52.11
2023-02-11T18:26:07.969Z,52.33
2023-02-11T18:29:10.570Z,51.78
2023-02-11T18:32:13.683Z,51.71
2023-02-11T18:35:18.168Z,51.96
2023-02-11T18:38:22.247Z,52.09
2023-02-11T18:41:24.850Z,52.06
2023-02-11T18:44:27.480Z,52.99
2023-02-11T18:47:31.320Z,53.10
2023-02-11T18:50:33.685Z,52.21
2023-02-11T18:53:36.397Z,51.89
2023-02-11T18:56:39.210Z,51.81
2023-02-11T18:59:42.875Z,52.51
2023-02-11T19:02:45.137Z,52.84
2023-02-11T19:05:49.382Z,53.14
2023-02-11T19:08:53.647Z,52.96
2023-02-11T19:11:57.926Z,52.74
2023-02-11T19:15:00.864Z,52.54
2023-02-11T19:18:03.428Z,52.52
2023-02-11T19:21:13.134Z,53.01
2023-02-11T19:24:18.936Z,53.16
2023-02-11T19:27:21.421Z,53.98
2023-02-11T19:30:24.293Z,54.73
2023-02-11T19:33:26.544Z,55.03
2023-02-11T19:36:29.462Z,54.87
2023-02-11T19:39:31.754Z,55.52
2023-02-11T19:42:34.366Z,54.95
2023-02-11T19:45:39.606Z,53.88
2023-02-11T19:48:42.362Z,54.43
2023-02-11T19:51:44.597Z,54.12
2023-02-11T19:54:47.203Z,53.92
2023-02-11T19:57:50.078Z,53.75
2023-02-11T20:00:52.999Z,53.89
2023-02-11T20:03:57.485Z,53.38
2023-02-11T20:06:59.870Z,53.71
2023-02-11T20:10:02.707Z,53.44
2023-02-11T20:13:05.129Z,53.09
2023-02-11T20:16:13.450Z,53.67
2023-02-11T20:19:18.655Z,53.70
2023-02-11T20:22:22.134Z,54.02
2023-02-11T20:25:24.641Z,54.50
2023-02-11T20:28:27.547Z,53.79
2023-02-11T20:31:32.241Z,54.18
2023-02-11T20:34:34.998Z,55.26
2023-02-11T20:37:38.708Z,55.58
2023-02-11T20:40:41.327Z,54.74
2023-02-11T20:43:46.162Z,54.91
2023-02-11T20:46:49.392Z,54.86
2023-02-11T20:49:54.933Z,55.69
2023-02-11T20:52:57.543Z,58.46
2023-02-11T20:56:10.748Z,60.18
2023-02-11T20:59:14.304Z,63.55
2023-02-11T21:02:16.620Z,66.58
2023-02-11T21:05:19.745Z,67.29
2023-02-11T21:08:21.889Z,67.21
2023-02-11T21:11:24.588Z,67.13
2023-02-11T21:14:28.733Z,67.97
2023-02-11T21:17:32.049Z,68.46
2023-02-11T21:20:34.353Z,68.73
2023-02-11T21:23:39.532Z,68.84
2023-02-11T21:26:42.321Z,69.10
2023-02-11T21:29:53.748Z,69.74
2023-02-11T21:33:00.462Z,69.91
2023-02-11T21:36:04.554Z,70.59
2023-02-11T21:39:07.091Z,70.93
2023-02-11T21:42:09.776Z,71.57
2023-02-11T21:45:12.048Z,72.04
2023-02-11T21:48:15.240Z,72.07
2023-02-11T21:51:20.742Z,71.71
2023-02-11T21:54:25.748Z,72.19
2023-02-11T21:57:28.036Z,72.58
2023-02-11T22:00:31.235Z,73.18
2023-02-11T22:03:33.793Z,73.93
2023-02-11T22:06:35.980Z,74.35
2023-02-11T22:09:39.638Z,74.66
2023-02-11T22:12:42.189Z,75.21
2023-02-11T22:15:44.646Z,75.37
2023-02-11T22:18:46.956Z,75.88
2023-02-11T22:21:49.813Z,76.39
2023-02-11T22:24:53.970Z,76.68
2023-02-11T22:27:56.610Z,76.79
2023-02-11T22:30:59.150Z,77.28
2023-02-11T22:34:03.484Z,77.83
2023-02-11T22:37:07.437Z,78.47
2023-02-11T22:40:10.515Z,78.70
2023-02-11T22:43:12.721Z,78.59
2023-02-11T22:46:18.118Z,78.59
2023-02-11T22:49:21.644Z,79.38
2023-02-11T22:52:24.143Z,79.40
2023-02-11T22:55:26.699Z,79.54
2023-02-11T22:58:29.386Z,80.08
2023-02-11T23:01:32.087Z,80.14
2023-02-11T23:04:34.770Z,80.65
2023-02-11T23:07:37.191Z,80.76
2023-02-11T23:10:40.343Z,80.96
2023-02-11T23:13:43.334Z,81.00
2023-02-11T23:16:46.103Z,81.34
2023-02-11T23:19:48.445Z,81.51
2023-02-11T23:22:51.122Z,81.81
2023-02-11T23:25:53.518Z,82.19
2023-02-11T23:28:58.008Z,82.32
2023-02-11T23:32:00.437Z,82.85
2023-02-11T23:35:03.312Z,82.61
2023-02-11T23:38:05.805Z,83.46
2023-02-11T23:41:08.570Z,84.00
2023-02-11T23:44:11.003Z,84.29
2023-02-11T23:47:13.815Z,84.41
2023-02-11T23:50:16.228Z,84.44
2023-02-11T23:53:18.954Z,84.26
2023-02-11T23:56:26.924Z,84.45
2023-02-11T23:59:29.809Z,84.67
